cover

Azzido Da Bass - 50.000 Watts (Brooks Remix)

Get it on iTunes StoreListen on Apple Music

Trackname / Key / BPM / Publish dateArtists, Remixers / Label
128 bpm, 12B / E major, 2014-12-30, Electro House,  0  20

Tracks in release Electro Love Vol. 7

#Trackname / Key / BPM / Publish dateArtists, Remixers / Label
1 128 bpm, 7B / F major, 2014-12-30, Electro House,  0  20
2 128 bpm, 11A / F# minor, 2014-12-30, Electro House,  0  20
3 128 bpm, 4A / F minor, 2014-12-30, Electro House,  0  20
4 128 bpm, 6A / G minor, 2014-12-30, Electro House,  0  20
5 126 bpm, 7B / F major, 2014-12-30, Electro House,  0  20
6 128 bpm, 2B / F# major, 2014-12-30, Electro House,  0  20
7 128 bpm, 7A / D minor, 2014-12-30, Electro House,  0  20
8 128 bpm, 11A / F# minor, 2014-12-30, Electro House,  0  20
9 128 bpm, 1B / B major, 2014-12-30, Electro House,  0  20
10 128 bpm, 12B / E major, 2014-12-30, Electro House,  0  20
11 128 bpm, 11B / A major, 2014-12-30, Electro House,  0  20
12 125 bpm, 4A / F minor, 2014-12-30, Electro House,  0  20
13 130 bpm, 12B / E major, 2014-12-30, Electro House,  0  20
14 126 bpm, 3A / Bb minor, 2014-12-30, Electro House,  0  20
15 128 bpm, 11A / F# minor, 2014-12-30, Electro House,  0  20
16 128 bpm, 8A / A minor, 2014-12-30, Electro House,  0  20
17 128 bpm, 8A / A minor, 2014-12-30, Electro House,  0  20
18 130 bpm, 9A / E minor, 2014-12-30, Electro House,  0  20
19 130 bpm, 8A / A minor, 2014-12-30, Electro House,  0  20
20 128 bpm, 7A / D minor, 2014-12-30, Electro House,  0  20
×

Sign in

Sign in to access your personalized pages, follow artists and labels you love, and create playlists fromyour favorite tracks.

Please wait...